Time;durP1;ratioP1;P1;durP2;ratioP2;P2;SDS_P1;SDS_P2;PMS_P1;PMS_P2;Temp;Humidity;BMP_temperature;BMP_pressure;BME280_temperature;BME280_humidity;BME280_pressure;Samples;Min_cycle;Max_cycle;Signal;HPM_P1;HPM_P2
2021/05/10 00:01:17;;;;;;;6.63;5.32;;;21.30;59.70;;;;;;5011780;28;20057;-60
2021/05/10 00:03:43;;;;;;;5.18;4.68;;;21.20;59.90;;;;;;5043518;28;20072;-61
2021/05/10 00:06:09;;;;;;;6.22;4.70;;;21.20;59.90;;;;;;5041730;28;20033;-60
2021/05/10 00:08:34;;;;;;;5.43;4.30;;;21.20;59.60;;;;;;5016913;28;20070;-60
2021/05/10 00:11:00;;;;;;;5.28;4.75;;;21.20;59.40;;;;;;5033305;28;20129;-59
2021/05/10 00:13:27;;;;;;;5.93;4.70;;;21.20;59.50;;;;;;5043281;28;20041;-60
2021/05/10 00:15:52;;;;;;;5.30;4.35;;;21.00;59.90;;;;;;5057103;28;20033;-58
2021/05/10 00:18:19;;;;;;;5.40;4.38;;;21.00;60.00;;;;;;5021253;28;20037;-60
2021/05/10 00:20:47;;;;;;;7.03;4.25;;;21.00;60.10;;;;;;5036954;28;20040;-59
2021/05/10 00:23:14;;;;;;;4.70;4.30;;;20.90;60.00;;;;;;5016487;28;20033;-59
2021/05/10 00:25:41;;;;;;;4.72;4.20;;;20.90;59.90;;;;;;5021437;28;20038;-55
2021/05/10 00:28:07;;;;;;;4.32;3.92;;;20.90;60.00;;;;;;5020654;28;20026;-60
2021/05/10 00:30:33;;;;;;;5.10;4.13;;;20.90;59.90;;;;;;5044935;28;20494;-61
2021/05/10 00:32:59;;;;;;;5.60;4.10;;;21.00;59.60;;;;;;5017146;28;20036;-60
2021/05/10 00:35:25;;;;;;;7.60;4.63;;;21.00;59.70;;;;;;5024420;28;20049;-61
2021/05/10 00:37:52;;;;;;;4.63;4.18;;;20.80;60.10;;;;;;5016332;28;20436;-61
2021/05/10 00:40:20;;;;;;;5.20;4.20;;;20.70;60.10;;;;;;5026729;28;20029;-58
2021/05/10 00:42:46;;;;;;;5.47;4.18;;;20.70;60.40;;;;;;5017400;28;20116;-60
2021/05/10 00:45:12;;;;;;;4.88;3.95;;;20.70;60.60;;;;;;5028528;28;20088;-57
2021/05/10 00:47:38;;;;;;;5.63;4.38;;;20.70;60.50;;;;;;5011508;28;20394;-61
2021/05/10 00:50:08;;;;;;;4.63;4.07;;;20.70;60.40;;;;;;5016393;28;20708;-61
2021/05/10 00:52:34;;;;;;;5.88;4.32;;;20.70;60.30;;;;;;5012510;28;20113;-60
2021/05/10 00:55:01;;;;;;;5.15;4.00;;;20.70;60.60;;;;;;5017292;28;20051;-60
2021/05/10 00:57:32;;;;;;;6.35;4.50;;;20.60;60.70;;;;;;5017703;28;20042;-61
2021/05/10 00:59:58;;;;;;;4.78;4.25;;;20.60;60.60;;;;;;5014869;28;20112;-57
2021/05/10 01:02:24;;;;;;;5.53;4.38;;;20.30;61.00;;;;;;5024696;28;20041;-61
2021/05/10 01:04:50;;;;;;;6.93;4.45;;;20.30;61.30;;;;;;5012300;28;20057;-60
2021/05/10 01:07:15;;;;;;;5.75;4.32;;;20.10;62.10;;;;;;5023830;28;20575;-61
2021/05/10 01:09:41;;;;;;;5.13;4.40;;;20.00;62.20;;;;;;5011382;28;20501;-59
2021/05/10 01:12:07;;;;;;;6.00;4.72;;;20.10;62.20;;;;;;5024649;28;20041;-59
2021/05/10 01:14:36;;;;;;;4.53;4.13;;;20.10;62.00;;;;;;5014636;28;20057;-58
2021/05/10 01:17:02;;;;;;;5.50;4.55;;;20.20;61.80;;;;;;5037746;28;20041;-58
2021/05/10 01:19:29;;;;;;;4.93;4.25;;;20.30;62.40;;;;;;5015144;28;20041;-59
2021/05/10 01:21:58;;;;;;;8.18;4.47;;;20.10;62.00;;;;;;5044428;28;20394;-60
2021/05/10 01:24:24;;;;;;;5.05;4.50;;;19.90;62.50;;;;;;5038440;28;20041;-60
2021/05/10 01:26:50;;;;;;;4.90;4.40;;;19.90;62.80;;;;;;5028969;28;20152;-58
2021/05/10 01:29:17;;;;;;;5.50;4.55;;;19.80;62.90;;;;;;5014437;28;20557;-60
2021/05/10 01:31:43;;;;;;;7.85;4.20;;;19.70;62.80;;;;;;5026486;28;20121;-57
2021/05/10 01:34:09;;;;;;;4.88;4.15;;;19.60;63.40;;;;;;5028542;28;20685;-60
2021/05/10 01:36:34;;;;;;;5.65;4.32;;;19.50;63.60;;;;;;5034929;28;20053;-57
2021/05/10 01:39:00;;;;;;;5.65;4.38;;;19.60;63.40;;;;;;5019617;28;20052;-60
2021/05/10 01:41:25;;;;;;;6.35;4.30;;;19.70;63.50;;;;;;5055995;28;20527;-61
2021/05/10 01:43:51;;;;;;;7.05;4.63;;;19.10;65.60;;;;;;5016947;28;20433;-60
2021/05/10 01:46:17;;;;;;;5.68;4.60;;;18.90;65.90;;;;;;5027172;28;20057;-60
2021/05/10 01:48:42;;;;;;;5.45;4.55;;;18.90;65.80;;;;;;5016405;28;20026;-60
2021/05/10 01:51:08;;;;;;;5.13;4.15;;;18.90;65.80;;;;;;5053301;28;20393;-58
2021/05/10 01:53:33;;;;;;;6.03;4.40;;;18.70;66.40;;;;;;5020415;28;20795;-60
2021/05/10 01:55:59;;;;;;;4.72;3.95;;;18.70;66.00;;;;;;5019782;28;20045;-59
2021/05/10 01:58:25;;;;;;;6.93;4.13;;;18.70;66.20;;;;;;5022491;28;20437;-59
2021/05/10 02:00:50;;;;;;;4.47;4.07;;;18.70;65.70;;;;;;5015243;28;20045;-58
2021/05/10 02:03:21;;;;;;;4.15;3.75;;;18.80;65.70;;;;;;5013623;28;20037;-58
2021/05/10 02:05:48;;;;;;;4.78;4.20;;;18.90;65.60;;;;;;5013635;28;20061;-67
2021/05/10 02:08:15;;;;;;;5.40;4.05;;;19.00;65.00;;;;;;5022023;28;20482;-60
2021/05/10 02:10:46;;;;;;;5.10;4.57;;;18.90;65.50;;;;;;5013548;28;20030;-59
2021/05/10 02:13:16;;;;;;;4.80;3.90;;;18.90;65.60;;;;;;5030868;28;20029;-58
2021/05/10 02:15:47;;;;;;;4.40;4.00;;;19.00;65.30;;;;;;5013645;28;20152;-61
2021/05/10 02:18:15;;;;;;;5.13;4.38;;;19.00;64.80;;;;;;5031117;28;20041;-59
2021/05/10 02:20:42;;;;;;;4.90;4.40;;;19.10;64.80;;;;;;5014188;28;20109;-60
2021/05/10 02:23:25;;;;;;;4.53;4.13;;;19.10;64.50;;;;;;5034144;28;20029;-61
2021/05/10 02:25:53;;;;;;;4.78;4.30;;;19.10;64.80;;;;;;5020036;28;20038;-59
2021/05/10 02:28:23;;;;;;;5.45;3.65;;;19.10;64.30;;;;;;5037757;28;20080;-57
2021/05/10 02:30:49;;;;;;;6.60;4.10;;;19.10;64.10;;;;;;5017482;28;20551;-61
2021/05/10 02:33:17;;;;;;;4.30;3.60;;;19.00;63.90;;;;;;5018171;28;20038;-60
2021/05/10 02:35:44;;;;;;;4.88;3.80;;;19.10;63.30;;;;;;5026177;28;20506;-61
2021/05/10 02:38:11;;;;;;;4.72;4.05;;;19.10;63.50;;;;;;5013017;28;20038;-59
2021/05/10 02:40:37;;;;;;;5.35;3.85;;;18.90;63.50;;;;;;5018783;28;20042;-59
2021/05/10 02:43:03;;;;;;;6.60;4.00;;;18.90;63.40;;;;;;5014012;28;20058;-62
2021/05/10 02:45:29;;;;;;;5.10;4.00;;;18.90;63.50;;;;;;5025114;28;20034;-58
2021/05/10 02:47:55;;;;;;;4.85;3.70;;;18.80;63.50;;;;;;5020726;28;20061;-60
2021/05/10 02:50:23;;;;;;;5.72;4.00;;;18.80;63.80;;;;;;5019121;28;20044;-60
2021/05/10 02:52:50;;;;;;;7.55;4.20;;;18.70;64.00;;;;;;5039199;28;20095;-61
2021/05/10 02:55:17;;;;;;;4.78;4.07;;;18.70;63.90;;;;;;5019319;28;20500;-61
2021/05/10 02:57:44;;;;;;;5.68;4.30;;;18.70;64.10;;;;;;5048383;28;20033;-62
2021/05/10 03:00:12;;;;;;;4.53;3.92;;;18.70;64.40;;;;;;5016627;28;20041;-62
2021/05/10 03:02:38;;;;;;;6.57;4.25;;;18.60;64.70;;;;;;5019461;28;20025;-61
2021/05/10 03:05:05;;;;;;;4.63;4.22;;;18.40;65.20;;;;;;5025669;28;20405;-61
2021/05/10 03:07:32;;;;;;;4.57;4.18;;;18.30;65.90;;;;;;5017054;28;20061;-63
2021/05/10 03:09:57;;;;;;;5.22;4.20;;;18.20;66.30;;;;;;5027604;28;20136;-60
2021/05/10 03:12:23;;;;;;;5.30;3.60;;;18.20;66.20;;;;;;5045232;28;20042;-61
2021/05/10 03:14:48;;;;;;;4.70;3.85;;;18.30;65.90;;;;;;5022541;28;20402;-60
2021/05/10 03:17:14;;;;;;;7.15;4.18;;;18.40;65.70;;;;;;5021470;28;20026;-60
2021/05/10 03:19:40;;;;;;;6.18;4.40;;;18.40;65.60;;;;;;5033768;28;20044;-61
2021/05/10 03:22:05;;;;;;;6.38;4.18;;;18.30;65.70;;;;;;5012237;28;20034;-61
2021/05/10 03:24:31;;;;;;;5.95;4.53;;;18.30;65.90;;;;;;5027841;28;20064;-59
2021/05/10 03:26:56;;;;;;;6.47;4.25;;;18.30;66.00;;;;;;5012217;28;20053;-58
2021/05/10 03:29:22;;;;;;;4.80;3.95;;;18.40;66.20;;;;;;5014239;28;20128;-60
2021/05/10 03:31:48;;;;;;;4.70;4.10;;;18.50;66.00;;;;;;5012030;28;20048;-61
2021/05/10 03:34:14;;;;;;;6.15;4.20;;;18.50;66.50;;;;;;5027895;28;20029;-61
2021/05/10 03:36:39;;;;;;;4.90;4.20;;;18.60;65.90;;;;;;5030347;28;20475;-59
2021/05/10 03:39:05;;;;;;;5.90;4.28;;;18.70;65.90;;;;;;5023418;28;20053;-59
2021/05/10 03:41:31;;;;;;;4.75;4.22;;;18.60;65.90;;;;;;5011859;28;20054;-59
2021/05/10 03:43:57;;;;;;;5.70;4.43;;;18.60;65.90;;;;;;5015047;28;20037;-61
2021/05/10 03:46:24;;;;;;;5.47;4.63;;;18.60;66.10;;;;;;5011874;28;20037;-61
2021/05/10 03:48:49;;;;;;;5.47;4.15;;;18.40;66.20;;;;;;5015103;28;20490;-57
2021/05/10 03:51:15;;;;;;;5.78;4.38;;;18.40;66.30;;;;;;5011961;28;20087;-57
2021/05/10 03:53:41;;;;;;;5.82;4.70;;;18.40;66.30;;;;;;5022410;28;20026;-59
2021/05/10 03:56:06;;;;;;;6.18;4.60;;;18.50;66.50;;;;;;5022318;28;20042;-60
2021/05/10 03:58:32;;;;;;;6.00;4.60;;;18.50;66.50;;;;;;5023350;28;20689;-60
2021/05/10 04:00:57;;;;;;;6.93;4.88;;;18.50;66.50;;;;;;5043463;28;20490;-58
2021/05/10 04:03:28;;;;;;;6.05;4.10;;;18.50;66.50;;;;;;5051942;28;20033;-60
2021/05/10 04:06:47;;;;;;;5.55;4.30;;;18.60;66.80;;;;;;5012772;28;20430;-62
2021/05/10 04:14:10;;;;;;;5.60;4.47;;;18.60;66.40;;;;;;5019088;28;20048;-59
2021/05/10 04:16:36;;;;;;;7.15;5.30;;;18.60;66.40;;;;;;5026761;28;20508;-60
2021/05/10 04:19:02;;;;;;;6.05;5.50;;;18.70;66.40;;;;;;5017112;28;20061;-60
2021/05/10 04:21:27;;;;;;;6.43;5.72;;;18.70;66.40;;;;;;5029900;28;20404;-61
2021/05/10 04:23:53;;;;;;;7.05;4.88;;;18.70;66.30;;;;;;5032904;28;20044;-59
2021/05/10 04:26:18;;;;;;;6.80;4.93;;;18.70;66.40;;;;;;5018258;28;20069;-59
2021/05/10 04:28:44;;;;;;;7.22;4.43;;;18.70;65.90;;;;;;5034664;28;20422;-60
2021/05/10 04:31:10;;;;;;;4.43;4.03;;;18.80;65.50;;;;;;5031289;28;20500;-59
2021/05/10 04:33:35;;;;;;;5.72;4.05;;;18.80;65.30;;;;;;5023358;28;20060;-60
2021/05/10 04:36:01;;;;;;;8.00;4.63;;;18.80;65.10;;;;;;5036059;28;20428;-59
2021/05/10 04:38:27;;;;;;;4.25;3.80;;;18.80;64.90;;;;;;5037480;28;20046;-60
2021/05/10 04:40:56;;;;;;;5.47;4.40;;;18.80;65.10;;;;;;5011293;28;20037;-58
2021/05/10 04:43:23;;;;;;;8.73;6.18;;;18.80;64.90;;;;;;5025308;28;20118;-60
2021/05/10 04:45:49;;;;;;;7.13;6.25;;;18.80;64.90;;;;;;5011737;28;20521;-61
2021/05/10 04:48:14;;;;;;;7.13;4.20;;;18.90;64.80;;;;;;5017108;28;20060;-59
2021/05/10 04:50:40;;;;;;;4.93;4.20;;;18.90;64.80;;;;;;5011311;28;20108;-61
2021/05/10 04:53:13;;;;;;;4.93;4.40;;;18.90;64.70;;;;;;5015317;28;20038;-61
2021/05/10 04:55:40;;;;;;;7.32;4.50;;;19.00;64.70;;;;;;5011280;28;20057;-60
2021/05/10 04:58:05;;;;;;;5.55;4.50;;;19.00;64.50;;;;;;5017637;28;20398;-59
2021/05/10 05:00:32;;;;;;;4.90;4.20;;;18.90;64.80;;;;;;5027982;28;20040;-58
2021/05/10 05:02:57;;;;;;;6.32;4.65;;;18.90;64.90;;;;;;5024649;28;20041;-61
2021/05/10 05:05:23;;;;;;;13.38;4.85;;;19.00;64.90;;;;;;5014654;28;20034;-60
2021/05/10 05:07:48;;;;;;;5.55;4.90;;;19.00;64.70;;;;;;5035347;28;20037;-61
2021/05/10 05:10:15;;;;;;;7.35;4.50;;;19.00;64.90;;;;;;5026224;28;20374;-58
2021/05/10 05:12:40;;;;;;;9.57;5.00;;;19.00;64.60;;;;;;5014716;28;20046;-61
2021/05/10 05:15:07;;;;;;;8.65;4.90;;;19.10;64.60;;;;;;5031411;28;20021;-61
2021/05/10 05:17:36;;;;;;;5.95;4.70;;;19.20;64.50;;;;;;5034271;28;20382;-62
2021/05/10 05:20:04;;;;;;;4.93;4.45;;;19.20;64.50;;;;;;5023230;28;20042;-61
2021/05/10 05:22:29;;;;;;;6.13;4.35;;;19.30;64.40;;;;;;5019088;28;20538;-56
2021/05/10 05:24:56;;;;;;;10.20;4.50;;;19.40;64.10;;;;;;5033425;28;20117;-61
2021/05/10 05:27:26;;;;;;;7.82;4.38;;;19.50;64.00;;;;;;5032052;28;20348;-61
2021/05/10 05:29:52;;;;;;;13.75;12.35;;;19.50;63.90;;;;;;5045751;28;20065;-61
2021/05/10 05:32:18;;;;;;;16.67;14.13;;;19.50;64.00;;;;;;5017671;28;20062;-61
2021/05/10 05:34:44;;;;;;;10.40;6.15;;;19.60;64.20;;;;;;5030476;28;20044;-59
2021/05/10 05:37:09;;;;;;;8.10;4.82;;;19.40;65.00;;;;;;5014306;28;20512;-60
2021/05/10 05:39:35;;;;;;;11.07;5.57;;;19.40;65.30;;;;;;5037971;28;20037;-61
2021/05/10 05:42:00;;;;;;;8.90;5.10;;;19.10;66.30;;;;;;5021280;28;20402;-62
2021/05/10 05:44:26;;;;;;;9.80;5.35;;;19.30;66.40;;;;;;5033577;28;20145;-60
2021/05/10 05:46:59;;;;;;;5.95;5.03;;;19.20;66.70;;;;;;5013652;28;20072;-60
2021/05/10 05:49:25;;;;;;;5.32;4.40;;;19.30;67.30;;;;;;5037575;28;20045;-61
2021/05/10 05:51:51;;;;;;;5.35;4.82;;;19.40;67.10;;;;;;5033828;28;20583;-60
2021/05/10 05:54:16;;;;;;;5.82;5.22;;;19.60;66.90;;;;;;5035421;28;20038;-60
2021/05/10 05:56:42;;;;;;;12.52;9.35;;;19.80;66.70;;;;;;5046009;28;20068;-61
2021/05/10 05:59:08;;;;;;;11.23;8.88;;;19.80;66.40;;;;;;5031777;28;20059;-59
2021/05/10 06:01:34;;;;;;;7.82;6.00;;;20.00;66.00;;;;;;5025934;28;20081;-64
2021/05/10 06:03:59;;;;;;;12.45;6.18;;;20.20;65.50;;;;;;5017112;28;20473;-61
2021/05/10 06:06:25;;;;;;;11.60;5.40;;;20.40;65.10;;;;;;5018597;28;20092;-60
2021/05/10 06:08:51;;;;;;;7.05;4.93;;;20.60;64.70;;;;;;5010898;28;20034;-58
2021/05/10 06:11:17;;;;;;;12.18;5.43;;;20.70;64.50;;;;;;5023734;28;20048;-61
2021/05/10 06:13:42;;;;;;;7.93;5.07;;;20.80;64.50;;;;;;5037288;28;20094;-61
2021/05/10 06:16:08;;;;;;;5.88;4.85;;;20.80;63.80;;;;;;5023589;28;20033;-61
2021/05/10 06:18:34;;;;;;;9.93;5.60;;;20.60;63.40;;;;;;5029911;28;20049;-60
2021/05/10 06:21:05;;;;;;;9.55;5.38;;;20.60;63.80;;;;;;5029255;28;20132;-59
2021/05/10 06:23:31;;;;;;;10.77;6.22;;;20.70;63.70;;;;;;5020326;28;20033;-60
2021/05/10 06:25:56;;;;;;;18.38;11.95;;;20.70;64.00;;;;;;5030991;28;20474;-60
2021/05/10 06:28:22;;;;;;;7.05;5.65;;;20.60;64.00;;;;;;5013330;28;20040;-61
2021/05/10 06:30:48;;;;;;;8.63;5.63;;;20.60;64.40;;;;;;5040345;28;20704;-57
2021/05/10 06:33:13;;;;;;;7.82;4.22;;;20.70;64.00;;;;;;5025116;28;20061;-61
2021/05/10 06:35:39;;;;;;;9.32;4.55;;;20.70;63.80;;;;;;5032008;28;20111;-57
2021/05/10 06:38:05;;;;;;;7.07;3.92;;;20.80;63.70;;;;;;5026076;28;20041;-61
2021/05/10 06:40:30;;;;;;;10.02;4.57;;;20.80;63.60;;;;;;5035143;28;20041;-65
2021/05/10 06:42:56;;;;;;;10.63;5.32;;;21.00;63.60;;;;;;5044194;28;20046;-60
2021/05/10 06:45:22;;;;;;;7.25;4.47;;;21.10;63.50;;;;;;5012578;28;20500;-61
2021/05/10 06:47:48;;;;;;;10.40;4.90;;;21.20;63.10;;;;;;5034182;28;20052;-60
2021/05/10 06:50:14;;;;;;;9.00;4.60;;;21.40;62.90;;;;;;5030204;28;20048;-60
2021/05/10 06:52:40;;;;;;;8.88;4.10;;;21.50;62.50;;;;;;5011664;28;20034;-63
2021/05/10 06:55:06;;;;;;;4.50;3.85;;;21.50;62.10;;;;;;5015130;28;20489;-60
2021/05/10 06:57:32;;;;;;;8.80;4.40;;;21.50;61.80;;;;;;5011631;28;20069;-62
2021/05/10 06:59:58;;;;;;;6.85;4.13;;;21.50;61.70;;;;;;5015159;28;20065;-62
2021/05/10 07:02:24;;;;;;;10.00;5.80;;;21.60;61.60;;;;;;5039335;28;20049;-62
2021/05/10 07:04:51;;;;;;;17.63;12.98;;;21.70;61.40;;;;;;5020226;28;20034;-61
2021/05/10 07:07:17;;;;;;;7.10;5.05;;;21.80;61.50;;;;;;5020056;28;20102;-61
2021/05/10 07:09:43;;;;;;;12.60;4.07;;;21.70;61.60;;;;;;5015092;28;20060;-61
2021/05/10 07:12:10;;;;;;;11.15;4.57;;;21.90;61.30;;;;;;5024376;28;20520;-60
2021/05/10 07:14:36;;;;;;;8.82;4.38;;;21.90;61.00;;;;;;5019121;28;20029;-59
2021/05/10 07:17:02;;;;;;;8.82;4.50;;;21.70;61.20;;;;;;5021921;28;20041;-61
2021/05/10 07:19:27;;;;;;;6.90;3.78;;;21.70;61.30;;;;;;5020974;28;20056;-62
2021/05/10 07:21:54;;;;;;;5.07;3.60;;;21.70;61.60;;;;;;5014009;28;20044;-61
2021/05/10 07:24:19;;;;;;;6.88;4.03;;;21.90;61.60;;;;;;5027734;28;20061;-62
2021/05/10 07:26:45;;;;;;;8.90;5.65;;;22.00;61.60;;;;;;5014009;28;20042;-60
2021/05/10 07:29:11;;;;;;;11.90;6.60;;;22.10;61.40;;;;;;5014298;28;20069;-61
2021/05/10 07:31:37;;;;;;;5.63;3.70;;;22.10;61.10;;;;;;5013488;28;20053;-61
2021/05/10 07:34:03;;;;;;;8.63;3.95;;;22.00;61.20;;;;;;5016376;28;20432;-61
2021/05/10 07:36:29;;;;;;;9.60;3.92;;;21.80;61.50;;;;;;5014613;28;20044;-63
2021/05/10 07:38:54;;;;;;;8.52;4.35;;;21.80;61.60;;;;;;5029911;28;20060;-61
2021/05/10 07:41:20;;;;;;;6.03;3.92;;;22.00;61.60;;;;;;5010748;28;20037;-62
2021/05/10 07:43:46;;;;;;;5.70;4.07;;;22.10;61.90;;;;;;5009946;28;20030;-61
2021/05/10 07:46:11;;;;;;;6.07;4.10;;;22.10;61.80;;;;;;5011675;28;20072;-62
2021/05/10 07:48:37;;;;;;;8.07;4.03;;;22.20;61.70;;;;;;5009224;28;20062;-61
2021/05/10 07:51:03;;;;;;;7.30;4.00;;;22.20;61.90;;;;;;5011969;28;20082;-62
2021/05/10 07:53:29;;;;;;;10.27;4.13;;;22.20;62.10;;;;;;5013787;28;20077;-61
2021/05/10 07:55:54;;;;;;;10.57;4.95;;;22.20;62.50;;;;;;5013284;28;20044;-62
2021/05/10 07:58:22;;;;;;;10.43;4.30;;;22.10;62.40;;;;;;5024705;28;20041;-65
2021/05/10 08:00:48;;;;;;;8.50;4.47;;;22.10;62.60;;;;;;5014827;28;20032;-62
2021/05/10 08:03:16;;;;;;;6.68;4.03;;;22.10;62.80;;;;;;5010399;28;20386;-60
2021/05/10 08:05:45;;;;;;;9.68;4.85;;;22.20;62.90;;;;;;5014722;28;20018;-61
2021/05/10 08:08:15;;;;;;;10.00;4.50;;;22.30;62.90;;;;;;5010991;28;20044;-61
2021/05/10 08:10:41;;;;;;;7.18;4.28;;;22.20;62.70;;;;;;5020668;28;20045;-61
2021/05/10 08:13:07;;;;;;;7.28;4.00;;;22.20;62.90;;;;;;5022058;28;20518;-62
2021/05/10 08:15:33;;;;;;;9.45;4.38;;;22.30;62.90;;;;;;5026827;28;20065;-63
2021/05/10 08:17:58;;;;;;;6.18;4.18;;;22.60;62.50;;;;;;5022190;28;20127;-61
2021/05/10 08:20:24;;;;;;;8.90;4.65;;;22.80;62.00;;;;;;5019898;28;20475;-62
2021/05/10 08:22:50;;;;;;;6.10;4.20;;;22.90;61.90;;;;;;5021686;28;20044;-63
2021/05/10 08:25:16;;;;;;;9.65;4.72;;;23.00;61.70;;;;;;5016324;28;20029;-62
2021/05/10 08:27:42;;;;;;;5.03;3.92;;;23.10;61.40;;;;;;5011121;28;20037;-63
2021/05/10 08:30:11;;;;;;;6.70;4.30;;;23.30;60.70;;;;;;5015943;28;20130;-60
2021/05/10 08:32:39;;;;;;;8.88;3.90;;;23.40;58.70;;;;;;5028886;28;20026;-61
2021/05/10 08:35:06;;;;;;;7.35;4.00;;;23.40;58.70;;;;;;5029780;28;20033;-62
2021/05/10 08:37:32;;;;;;;5.78;3.72;;;23.50;58.80;;;;;;5028138;28;20045;-62
2021/05/10 08:39:58;;;;;;;10.48;4.25;;;23.70;58.80;;;;;;5039055;28;20028;-62
2021/05/10 08:42:24;;;;;;;5.28;4.15;;;23.70;58.60;;;;;;5033220;28;20049;-61
2021/05/10 08:44:50;;;;;;;4.68;3.60;;;23.90;58.60;;;;;;5019724;28;20045;-61
2021/05/10 08:47:20;;;;;;;7.72;4.15;;;24.10;58.30;;;;;;5028653;28;20041;-61
2021/05/10 08:49:45;;;;;;;6.10;4.22;;;24.20;58.10;;;;;;5051685;28;20076;-61
2021/05/10 08:52:11;;;;;;;6.13;3.60;;;24.10;58.80;;;;;;5049697;28;20067;-62
2021/05/10 08:54:38;;;;;;;6.47;4.25;;;24.00;58.60;;;;;;5034569;28;20064;-62
2021/05/10 08:57:04;;;;;;;13.75;5.00;;;23.90;58.60;;;;;;5035122;28;20042;-62
2021/05/10 08:59:30;;;;;;;12.15;4.93;;;23.90;59.00;;;;;;5018288;28;20038;-62
2021/05/10 09:01:58;;;;;;;9.38;4.68;;;23.90;59.50;;;;;;5037937;28;20033;-62
2021/05/10 09:04:36;;;;;;;5.20;4.00;;;24.00;60.20;;;;;;5019185;28;20095;-61
2021/05/10 09:07:27;;;;;;;11.55;4.32;;;23.90;60.40;;;;;;5037336;28;20092;-62
2021/05/10 09:10:00;;;;;;;8.10;3.85;;;23.90;61.00;;;;;;5038033;28;20099;-61
2021/05/10 09:12:48;;;;;;;6.20;3.97;;;24.00;60.00;;;;;;5029315;28;20050;-62
2021/05/10 09:15:25;;;;;;;3.50;3.20;;;24.20;59.30;;;;;;5028734;28;20041;-62
2021/05/10 09:17:56;;;;;;;4.53;3.67;;;24.30;58.80;;;;;;5021702;28;20667;-61
2021/05/10 09:20:24;;;;;;;5.03;3.90;;;24.20;58.90;;;;;;5034783;28;20519;-62
2021/05/10 09:22:58;;;;;;;4.80;3.80;;;24.30;58.60;;;;;;5032958;28;20056;-62
2021/05/10 09:25:36;;;;;;;8.55;4.10;;;24.60;58.00;;;;;;5031409;28;20048;-61
2021/05/10 09:28:23;;;;;;;4.88;3.67;;;24.60;58.50;;;;;;5021012;28;20517;-63
2021/05/10 09:30:51;;;;;;;9.65;4.00;;;24.70;58.80;;;;;;5015019;28;20034;-61
2021/05/10 09:33:27;;;;;;;7.07;4.28;;;25.00;57.70;;;;;;5015656;28;20033;-61
2021/05/10 09:35:56;;;;;;;9.93;3.88;;;25.10;57.10;;;;;;5033984;28;20112;-60
2021/05/10 09:38:24;;;;;;;7.50;3.80;;;25.20;55.60;;;;;;5018493;28;20034;-61
2021/05/10 09:40:50;;;;;;;4.03;3.53;;;25.30;54.50;;;;;;5024890;28;20048;-62
2021/05/10 09:43:26;;;;;;;4.97;3.63;;;25.50;53.90;;;;;;5035305;28;20108;-61
2021/05/10 09:45:54;;;;;;;5.38;3.50;;;25.40;53.60;;;;;;5036295;28;20043;-61
2021/05/10 09:48:33;;;;;;;8.75;3.63;;;25.20;53.20;;;;;;5024044;28;20034;-61
2021/05/10 09:51:11;;;;;;;7.00;3.30;;;25.10;53.50;;;;;;5022989;28;20029;-59
2021/05/10 09:53:49;;;;;;;4.43;3.47;;;25.30;53.80;;;;;;5021340;28;20033;-62
2021/05/10 09:56:24;;;;;;;4.85;3.60;;;25.50;53.40;;;;;;5026814;28;20040;-62
2021/05/10 09:58:49;;;;;;;6.22;3.42;;;25.50;53.50;;;;;;5022183;28;20053;-61
2021/05/10 10:01:15;;;;;;;6.65;3.80;;;25.50;53.50;;;;;;5035291;28;20033;-62
2021/05/10 10:03:43;;;;;;;5.13;3.28;;;25.30;54.20;;;;;;5021119;28;20037;-62
2021/05/10 10:06:19;;;;;;;7.13;4.07;;;25.20;54.60;;;;;;5052528;28;20033;-63
2021/05/10 10:08:49;;;;;;;6.60;4.82;;;25.20;55.00;;;;;;5040332;28;20045;-59
2021/05/10 10:11:25;;;;;;;6.38;3.92;;;25.20;56.40;;;;;;5035019;28;20026;-60
2021/05/10 10:13:52;;;;;;;5.75;3.63;;;25.30;55.20;;;;;;5028373;28;20449;-63
2021/05/10 10:16:22;;;;;;;6.57;4.00;;;25.70;54.90;;;;;;5021577;28;20037;-61
2021/05/10 10:18:48;;;;;;;6.47;3.70;;;26.00;54.40;;;;;;5036581;28;20485;-62
2021/05/10 10:21:16;;;;;;;4.82;3.15;;;26.20;54.90;;;;;;5033108;28;20026;-62
2021/05/10 10:23:44;;;;;;;4.20;3.80;;;26.10;54.10;;;;;;5028502;28;20096;-61
2021/05/10 10:26:11;;;;;;;3.67;3.38;;;25.90;54.80;;;;;;5043062;28;20045;-60
2021/05/10 10:28:39;;;;;;;12.95;4.90;;;26.00;55.40;;;;;;5024681;28;20044;-62
2021/05/10 10:31:12;;;;;;;5.75;3.58;;;26.10;55.00;;;;;;5020306;28;20033;-62
2021/05/10 10:34:02;;;;;;;4.80;4.05;;;26.20;54.20;;;;;;5024080;28;20065;-61
2021/05/10 10:36:31;;;;;;;50.33;8.38;;;26.30;54.50;;;;;;5017378;28;20041;-60
2021/05/10 10:39:20;;;;;;;25.00;4.70;;;26.40;53.60;;;;;;5027117;28;20041;-63
2021/05/10 10:42:11;;;;;;;7.57;3.88;;;26.40;54.20;;;;;;5019788;28;20111;-62
2021/05/10 10:44:46;;;;;;;5.35;3.53;;;26.50;53.80;;;;;;5026523;28;20550;-62
2021/05/10 10:47:32;;;;;;;5.30;3.38;;;26.40;54.00;;;;;;5022711;28;20079;-62
2021/05/10 10:49:59;;;;;;;11.43;3.95;;;26.60;53.50;;;;;;5025352;28;20098;-61
2021/05/10 10:52:25;;;;;;;27.88;4.75;;;26.50;52.60;;;;;;5036504;28;20044;-63
2021/05/10 10:55:13;;;;;;;9.40;4.60;;;26.40;52.40;;;;;;5026066;28;20042;-61
2021/05/10 10:57:40;;;;;;;8.60;3.50;;;26.30;54.00;;;;;;5019346;28;20045;-62
2021/05/10 11:00:06;;;;;;;4.25;3.65;;;26.40;54.10;;;;;;5036734;28;20065;-64
2021/05/10 11:02:41;;;;;;;7.15;4.07;;;26.50;53.80;;;;;;5022493;28;20029;-61
2021/05/10 11:05:24;;;;;;;4.57;3.65;;;26.60;53.40;;;;;;5024407;28;20022;-60
2021/05/10 11:07:54;;;;;;;8.82;3.60;;;26.50;52.60;;;;;;5021418;28;20040;-62
2021/05/10 11:10:51;;;;;;;9.80;3.88;;;26.60;52.50;;;;;;5018607;28;20544;-63
2021/05/10 11:13:26;;;;;;;6.15;3.20;;;26.80;52.10;;;;;;5024554;28;20088;-62
2021/05/10 11:16:02;;;;;;;4.68;3.20;;;26.90;49.70;;;;;;5015559;28;20049;-63
2021/05/10 11:18:52;;;;;;;4.05;3.30;;;26.70;49.70;;;;;;5034431;28;20034;-63
2021/05/10 11:21:24;;;;;;;5.25;3.58;;;26.70;50.30;;;;;;5023426;28;20025;-63
2021/05/10 11:24:09;;;;;;;5.32;3.00;;;26.80;50.90;;;;;;5035270;28;20048;-62
2021/05/10 11:26:50;;;;;;;6.78;3.47;;;26.90;49.90;;;;;;5019775;28;20125;-62
2021/05/10 11:29:29;;;;;;;6.63;3.45;;;27.20;51.00;;;;;;5035198;28;20590;-63
2021/05/10 11:32:07;;;;;;;6.78;3.53;;;27.10;49.90;;;;;;5019469;28;20036;-63
2021/05/10 11:34:36;;;;;;;5.45;2.83;;;27.30;49.00;;;;;;5033110;28;20420;-61
2021/05/10 11:37:02;;;;;;;5.47;3.63;;;27.30;48.40;;;;;;5013660;28;20478;-61
2021/05/10 11:39:32;;;;;;;6.30;3.60;;;27.40;48.40;;;;;;5019923;28;20482;-61
2021/05/10 11:42:08;;;;;;;4.28;2.83;;;27.40;45.80;;;;;;5013223;28;20080;-60
2021/05/10 11:44:39;;;;;;;3.75;2.70;;;27.20;45.70;;;;;;5030242;28;20065;-61
2021/05/10 11:47:12;;;;;;;5.32;2.97;;;27.00;46.90;;;;;;5020058;28;20036;-62
2021/05/10 11:49:40;;;;;;;3.35;2.78;;;27.10;46.70;;;;;;5028567;28;20040;-61
2021/05/10 11:52:15;;;;;;;3.97;3.15;;;27.00;46.60;;;;;;5034286;28;20037;-62
2021/05/10 11:54:43;;;;;;;4.53;3.30;;;27.30;46.70;;;;;;5022818;28;20060;-60
2021/05/10 11:57:10;;;;;;;7.68;3.50;;;27.40;46.00;;;;;;5025118;28;20111;-62
2021/05/10 11:59:46;;;;;;;5.05;2.83;;;27.50;46.70;;;;;;5013850;28;20025;-63
2021/05/10 12:02:21;;;;;;;3.97;3.08;;;27.70;46.30;;;;;;5025399;28;20052;-61
2021/05/10 12:04:49;;;;;;;5.00;2.80;;;27.70;46.60;;;;;;5014950;28;20080;-62
2021/05/10 12:07:17;;;;;;;4.85;2.83;;;27.70;45.70;;;;;;5036825;28;20506;-62
2021/05/10 12:10:01;;;;;;;8.00;3.42;;;27.60;46.60;;;;;;5025067;28;20049;-60
2021/05/10 12:12:41;;;;;;;6.32;3.05;;;27.60;47.00;;;;;;5017044;28;20037;-61
2021/05/10 12:15:10;;;;;;;5.30;2.80;;;27.70;47.50;;;;;;5028406;28;20592;-61
2021/05/10 12:17:36;;;;;;;4.60;3.00;;;27.80;47.10;;;;;;5027541;28;20058;-60
2021/05/10 12:20:06;;;;;;;4.50;2.90;;;28.00;46.80;;;;;;5020344;28;20033;-60
2021/05/10 12:22:45;;;;;;;6.55;2.78;;;28.00;46.30;;;;;;5018261;28;20033;-62
2021/05/10 12:25:14;;;;;;;8.05;3.13;;;27.90;47.10;;;;;;5012902;28;20033;-59
2021/05/10 12:27:46;;;;;;;16.27;3.70;;;28.10;47.00;;;;;;5017212;28;20424;-62
2021/05/10 12:30:16;;;;;;;6.68;3.30;;;28.10;46.60;;;;;;5012660;28;20037;-63
2021/05/10 12:32:44;;;;;;;5.82;3.03;;;28.30;46.40;;;;;;5034948;28;20123;-60
2021/05/10 12:35:11;;;;;;;5.00;3.03;;;28.10;46.60;;;;;;5030413;28;20112;-60
2021/05/10 12:37:44;;;;;;;7.00;3.33;;;28.00;46.60;;;;;;5026311;28;20536;-61
2021/05/10 12:40:14;;;;;;;9.50;3.05;;;27.80;46.40;;;;;;5018128;28;20124;-63
2021/05/10 12:42:41;;;;;;;5.25;3.10;;;27.80;47.70;;;;;;5028230;28;20107;-62
2021/05/10 12:45:10;;;;;;;5.82;3.05;;;27.80;48.10;;;;;;5033057;28;20029;-61
2021/05/10 12:47:43;;;;;;;13.90;4.20;;;28.00;47.80;;;;;;5030819;28;20044;-62
2021/05/10 12:50:31;;;;;;;7.97;3.20;;;28.30;46.50;;;;;;5015852;28;20026;-62
2021/05/10 12:52:59;;;;;;;6.43;3.20;;;28.20;46.40;;;;;;5019896;28;20272;-62
2021/05/10 12:55:25;;;;;;;10.10;3.60;;;28.40;46.90;;;;;;5012250;28;20037;-62
2021/05/10 12:57:50;;;;;;;9.30;3.30;;;28.40;47.30;;;;;;5022752;28;20045;-62